Time;durP1;ratioP1;P1;durP2;ratioP2;P2;SDS_P1;SDS_P2;PMS_P1;PMS_P2;Temp;Humidity;BMP_temperature;BMP_pressure;BME280_temperature;BME280_humidity;BME280_pressure;Samples;Min_cycle;Max_cycle;Signal;HPM_P1;HPM_P2
2021/03/01 00:01:54;;;;;;;48.38;26.60;;;;;;;4.41;100.00;103127.81;4975168;28;20042;-78
2021/03/01 00:04:20;;;;;;;52.38;28.75;;;;;;;4.43;100.00;103136.56;4987415;28;20046;-78
2021/03/01 00:06:46;;;;;;;46.50;26.65;;;;;;;4.36;100.00;103135.13;4951830;28;20437;-78
2021/03/01 00:09:11;;;;;;;49.80;28.92;;;;;;;4.39;100.00;103133.19;4986830;28;20056;-78
2021/03/01 00:11:37;;;;;;;53.83;30.27;;;;;;;4.41;100.00;103131.34;4989386;28;20120;-78
2021/03/01 00:14:02;;;;;;;47.30;28.30;;;;;;;4.39;100.00;103121.69;4987923;28;20042;-78
2021/03/01 00:16:27;;;;;;;55.40;30.35;;;;;;;4.42;100.00;103133.06;4985394;28;20076;-78
2021/03/01 00:18:53;;;;;;;55.28;31.73;;;;;;;4.43;100.00;103131.25;4970650;28;20428;-78
2021/03/01 00:21:19;;;;;;;49.45;28.92;;;;;;;4.41;100.00;103131.34;4967083;28;20046;-78
2021/03/01 00:23:44;;;;;;;52.50;30.25;;;;;;;4.39;100.00;103133.19;4965142;28;20493;-77
2021/03/01 00:26:10;;;;;;;48.53;28.60;;;;;;;4.36;100.00;103135.97;4970568;28;20046;-78
2021/03/01 00:28:35;;;;;;;51.42;28.90;;;;;;;4.38;100.00;103133.28;4970966;28;20109;-78
2021/03/01 00:31:01;;;;;;;52.13;26.98;;;;;;;4.32;100.00;103130.88;4986700;28;20120;-78
2021/03/01 00:33:26;;;;;;;53.50;29.10;;;;;;;4.34;100.00;103131.66;4977457;28;20048;-78
2021/03/01 00:35:51;;;;;;;49.85;28.95;;;;;;;4.37;100.00;103140.34;4985038;28;20077;-78
2021/03/01 00:38:16;;;;;;;53.08;28.60;;;;;;;4.35;100.00;103138.72;4975788;28;20057;-79
2021/03/01 00:40:42;;;;;;;51.63;29.80;;;;;;;4.38;100.00;103142.09;4972064;28;20560;-78
2021/03/01 00:43:07;;;;;;;55.72;28.90;;;;;;;4.33;100.00;103141.44;4968949;28;20050;-79
2021/03/01 00:45:32;;;;;;;51.97;28.48;;;;;;;4.31;100.00;103140.63;4985102;28;20420;-79
2021/03/01 00:47:58;;;;;;;51.90;28.05;;;;;;;4.35;100.00;103146.69;4983127;28;20054;-78
2021/03/01 00:50:23;;;;;;;50.63;27.42;;;;;;;4.34;100.00;103137.84;4989124;28;20049;-79
2021/03/01 00:52:49;;;;;;;54.53;30.17;;;;;;;4.32;100.00;103145.03;4984306;28;20443;-79
2021/03/01 00:55:16;;;;;;;51.83;29.10;;;;;;;4.33;100.00;103143.25;4965428;28;20125;-79
2021/03/01 00:57:42;;;;;;;48.90;27.15;;;;;;;4.24;100.00;103140.03;4968325;28;20072;-79
2021/03/01 01:00:13;;;;;;;46.40;27.02;;;;;;;4.25;100.00;103136.44;4957613;28;20054;-78
2021/03/01 01:02:39;;;;;;;47.70;27.80;;;;;;;4.19;100.00;103139.38;4988762;28;20038;-78
2021/03/01 01:05:05;;;;;;;48.50;27.40;;;;;;;4.18;100.00;103134.13;4957218;28;20050;-78
2021/03/01 01:07:30;;;;;;;52.97;29.75;;;;;;;4.20;100.00;103134.91;4985373;28;20049;-78
2021/03/01 01:09:56;;;;;;;53.75;28.95;;;;;;;4.17;100.00;103133.28;4969380;28;20399;-78
2021/03/01 01:12:21;;;;;;;50.13;28.65;;;;;;;4.17;100.00;103122.66;4961241;28;20122;-78
2021/03/01 01:14:46;;;;;;;50.15;27.45;;;;;;;4.17;100.00;103130.63;4988947;28;20472;-78
2021/03/01 01:17:12;;;;;;;48.35;29.48;;;;;;;4.16;100.00;103115.56;4984708;28;20049;-78
2021/03/01 01:19:37;;;;;;;52.70;29.13;;;;;;;4.15;100.00;103124.50;4971409;28;20137;-78
2021/03/01 01:22:02;;;;;;;49.95;27.65;;;;;;;4.08;100.00;103120.34;4986516;28;20046;-78
2021/03/01 01:24:28;;;;;;;52.20;28.85;;;;;;;4.11;100.00;103120.22;4959588;28;20383;-78
2021/03/01 01:26:53;;;;;;;49.47;29.33;;;;;;;4.11;100.00;103112.25;4953353;28;20042;-78
2021/03/01 01:29:19;;;;;;;48.88;28.75;;;;;;;4.06;100.00;103120.44;4959976;28;20043;-78
2021/03/01 01:31:44;;;;;;;50.92;30.50;;;;;;;4.12;100.00;103119.31;4986088;28;20042;-79
2021/03/01 01:34:09;;;;;;;51.90;29.27;;;;;;;4.01;100.00;103116.25;4987677;28;20039;-78
2021/03/01 01:36:35;;;;;;;53.72;29.70;;;;;;;3.94;100.00;103114.75;4986617;28;20521;-78
2021/03/01 01:39:00;;;;;;;56.40;28.42;;;;;;;3.93;100.00;103113.03;4955367;28;20519;-78
2021/03/01 01:41:26;;;;;;;57.15;30.00;;;;;;;3.87;100.00;103114.16;4958300;28;20475;-77
2021/03/01 01:43:51;;;;;;;58.05;31.83;;;;;;;3.92;100.00;103106.00;4954658;28;20035;-78
2021/03/01 01:46:16;;;;;;;53.22;31.45;;;;;;;3.87;100.00;103105.34;4986969;28;20043;-78
2021/03/01 01:48:42;;;;;;;53.15;30.08;;;;;;;3.77;100.00;103096.88;4987078;28;20039;-78
2021/03/01 01:51:07;;;;;;;55.20;30.23;;;;;;;3.76;100.00;103109.28;4970144;28;20109;-78
2021/03/01 01:53:33;;;;;;;55.38;31.33;;;;;;;3.77;100.00;103103.06;4969621;28;20113;-78
2021/03/01 01:56:00;;;;;;;56.33;30.55;;;;;;;3.72;100.00;103107.69;4988200;28;20042;-78
2021/03/01 01:58:26;;;;;;;58.35;32.00;;;;;;;3.71;100.00;103102.44;4971749;28;20046;-78
2021/03/01 02:00:51;;;;;;;63.92;33.42;;;;;;;3.63;100.00;103100.13;4970942;28;20046;-78
2021/03/01 02:03:38;;;;;;;57.20;30.45;;;;;;;3.58;100.00;103108.25;4952539;28;20181;-78
2021/03/01 02:06:13;;;;;;;62.78;32.95;;;;;;;3.52;100.00;103097.03;4986788;28;20411;-78
2021/03/01 02:08:50;;;;;;;62.60;33.85;;;;;;;3.49;100.00;103100.66;4983813;28;20050;-78
2021/03/01 02:11:22;;;;;;;65.88;33.90;;;;;;;3.43;100.00;103097.41;4976536;28;20096;-78
2021/03/01 02:13:56;;;;;;;67.15;34.00;;;;;;;3.34;100.00;103096.00;4985651;28;20042;-78
2021/03/01 02:16:29;;;;;;;68.32;34.78;;;;;;;3.32;100.00;103092.53;4969273;28;20043;-78
2021/03/01 02:18:55;;;;;;;69.00;34.45;;;;;;;3.32;100.00;103092.53;4986892;28;20034;-78
2021/03/01 02:21:20;;;;;;;68.78;34.90;;;;;;;3.23;100.00;103096.41;4987265;28;20048;-79
2021/03/01 02:23:46;;;;;;;75.70;36.92;;;;;;;3.21;100.00;103084.97;4972647;28;20038;-79
2021/03/01 02:26:17;;;;;;;73.10;35.47;;;;;;;3.17;100.00;103081.59;4956933;28;20419;-78
2021/03/01 02:28:46;;;;;;;70.22;36.13;;;;;;;3.12;100.00;103082.69;4958245;28;20046;-78
2021/03/01 02:31:12;;;;;;;;;;;;;;;3.05;100.00;103087.38;4992040;28;20043;-79
2021/03/01 02:33:43;;;;;;;66.47;31.45;;;;;;;2.91;100.00;103079.94;4989505;28;20012;-78
2021/03/01 02:36:17;;;;;;;69.50;35.25;;;;;;;2.94;100.00;103079.81;4991847;28;20133;-79
2021/03/01 02:38:44;;;;;;;68.40;35.08;;;;;;;2.90;100.00;103069.38;4987170;28;20042;-78
2021/03/01 02:41:11;;;;;;;73.03;35.85;;;;;;;2.83;100.00;103059.94;4990468;28;20515;-79
2021/03/01 02:43:39;;;;;;;66.88;34.90;;;;;;;2.74;100.00;103057.66;4972719;28;20495;-78
2021/03/01 02:46:07;;;;;;;71.60;35.13;;;;;;;2.68;100.00;103062.25;4991257;28;20100;-78
2021/03/01 02:48:34;;;;;;;81.72;36.78;;;;;;;2.64;100.00;103060.63;4987471;28;20129;-78
2021/03/01 02:50:59;;;;;;;78.80;37.50;;;;;;;2.69;100.00;103061.31;4965926;28;20035;-78
2021/03/01 02:53:26;;;;;;;76.75;37.30;;;;;;;2.68;100.00;103069.34;4987904;28;20129;-78
2021/03/01 02:55:53;;;;;;;82.50;36.75;;;;;;;2.55;100.00;103055.69;4967302;28;20061;-77
2021/03/01 02:58:20;;;;;;;81.78;37.72;;;;;;;2.56;100.00;103059.19;4988433;28;20046;-78
2021/03/01 03:00:46;;;;;;;83.85;39.33;;;;;;;2.57;100.00;103067.09;4991302;28;20038;-77
2021/03/01 03:03:12;;;;;;;83.68;38.53;;;;;;;2.60;100.00;103066.97;4988370;28;20047;-78
2021/03/01 03:05:40;;;;;;;83.10;39.17;;;;;;;2.59;100.00;103061.72;4991075;28;20092;-78
2021/03/01 03:08:06;;;;;;;81.63;38.95;;;;;;;2.49;100.00;103063.84;4969145;28;20399;-79
2021/03/01 03:10:32;;;;;;;79.45;36.80;;;;;;;2.49;100.00;103066.50;4958128;28;20046;-78
2021/03/01 03:12:59;;;;;;;81.70;39.15;;;;;;;2.47;100.00;103063.03;4985841;28;20042;-78
2021/03/01 03:15:26;;;;;;;82.95;40.33;;;;;;;2.41;100.00;103056.19;4975435;28;20372;-78
2021/03/01 03:17:53;;;;;;;90.72;41.22;;;;;;;2.40;100.00;103056.25;4986228;28;20406;-78
2021/03/01 03:20:19;;;;;;;82.45;37.03;;;;;;;2.33;100.00;103055.63;4993762;28;20041;-78
2021/03/01 03:22:45;;;;;;;81.40;38.38;;;;;;;2.31;100.00;103057.44;4989272;28;20327;-78
2021/03/01 03:25:12;;;;;;;84.38;38.28;;;;;;;2.25;100.00;103055.88;4988698;28;20122;-78
2021/03/01 03:27:38;;;;;;;84.32;38.38;;;;;;;2.23;100.00;103059.50;4970513;28;20113;-78
2021/03/01 03:30:09;;;;;;;87.97;39.70;;;;;;;2.24;100.00;103050.63;4986630;28;20507;-78
2021/03/01 03:32:35;;;;;;;84.80;40.28;;;;;;;2.23;100.00;103051.56;4947882;28;20088;-78
2021/03/01 03:35:01;;;;;;;85.25;39.30;;;;;;;2.22;100.00;103056.00;4965907;28;20437;-78
2021/03/01 03:37:36;;;;;;;86.70;37.55;;;;;;;2.09;100.00;103053.84;4986165;28;20050;-79
2021/03/01 03:40:04;;;;;;;89.05;39.05;;;;;;;2.17;100.00;103054.44;4984839;28;20410;-78
2021/03/01 03:42:30;;;;;;;81.47;36.85;;;;;;;2.24;100.00;103053.28;4986456;28;20053;-79
2021/03/01 03:44:57;;;;;;;79.70;36.00;;;;;;;2.32;100.00;103058.31;4984020;28;20072;-77
2021/03/01 03:47:23;;;;;;;84.00;37.65;;;;;;;2.40;100.00;103057.09;4987874;28;20077;-78
2021/03/01 03:49:54;;;;;;;88.05;38.60;;;;;;;2.42;100.00;103065.03;4985252;28;20567;-78
2021/03/01 03:52:24;;;;;;;90.22;38.38;;;;;;;2.42;100.00;103060.56;4983892;28;20137;-78
2021/03/01 03:54:51;;;;;;;82.18;36.40;;;;;;;2.48;100.00;103060.34;4985524;28;20129;-77
2021/03/01 03:57:22;;;;;;;78.50;35.00;;;;;;;2.56;100.00;103060.06;4963406;28;20043;-78
2021/03/01 03:59:50;;;;;;;78.38;35.88;;;;;;;2.59;100.00;103056.41;4979873;28;20129;-77
2021/03/01 04:02:18;;;;;;;68.18;30.50;;;;;;;2.63;100.00;103064.22;4983859;28;20084;-78
2021/03/01 04:04:45;;;;;;;63.58;30.05;;;;;;;2.65;100.00;103072.97;4968882;28;20110;-78
2021/03/01 04:07:12;;;;;;;61.60;27.63;;;;;;;2.71;100.00;103071.88;4984585;28;20042;-78
2021/03/01 04:09:42;;;;;;;54.55;25.55;;;;;;;2.77;100.00;103076.97;4985700;28;20049;-78
2021/03/01 04:12:10;;;;;;;63.05;30.30;;;;;;;2.79;100.00;103080.41;4964872;28;20372;-78
2021/03/01 04:14:36;;;;;;;70.37;31.03;;;;;;;2.82;100.00;103088.25;4946955;28;20038;-78
2021/03/01 04:17:07;;;;;;;65.13;30.33;;;;;;;2.84;100.00;103082.88;4953029;28;20158;-78
2021/03/01 04:19:34;;;;;;;66.65;32.80;;;;;;;2.84;100.00;103086.41;4964658;28;20121;-78
2021/03/01 04:22:01;;;;;;;67.97;32.95;;;;;;;2.87;100.00;103078.31;4985063;28;20538;-78
2021/03/01 04:24:28;;;;;;;62.88;31.02;;;;;;;2.90;100.00;103080.84;4972259;28;20108;-78
2021/03/01 04:26:54;;;;;;;65.00;31.25;;;;;;;2.93;100.00;103083.41;4939674;28;20511;-78
2021/03/01 04:29:21;;;;;;;59.42;30.02;;;;;;;2.98;100.00;103077.06;4987781;28;20177;-78
2021/03/01 04:31:48;;;;;;;60.03;30.08;;;;;;;2.97;100.00;103078.00;4989775;28;20039;-78
2021/03/01 04:34:16;;;;;;;64.03;29.90;;;;;;;2.96;100.00;103082.41;4969173;28;20044;-78
2021/03/01 04:36:45;;;;;;;67.65;31.73;;;;;;;2.98;100.00;103085.88;4983183;28;20380;-78
2021/03/01 04:39:11;;;;;;;69.20;31.80;;;;;;;2.94;100.00;103085.13;4984278;28;20467;-78
2021/03/01 04:41:37;;;;;;;66.95;31.85;;;;;;;2.96;100.00;103079.75;4956219;28;20128;-78
2021/03/01 04:44:04;;;;;;;72.85;32.67;;;;;;;2.94;100.00;103082.47;4972429;28;20038;-78
2021/03/01 04:46:31;;;;;;;68.75;33.60;;;;;;;2.98;100.00;103079.72;4984883;28;20038;-78
2021/03/01 04:49:01;;;;;;;66.50;29.85;;;;;;;2.93;100.00;103074.56;4967460;28;20050;-78
2021/03/01 04:51:27;;;;;;;64.70;31.05;;;;;;;2.97;100.00;103078.84;4956478;28;20665;-78
2021/03/01 04:53:57;;;;;;;73.30;31.15;;;;;;;2.94;100.00;103074.53;4968333;28;20053;-78
2021/03/01 04:56:23;;;;;;;61.42;27.38;;;;;;;2.93;100.00;103070.16;4975912;28;20055;-78
2021/03/01 04:58:51;;;;;;;68.22;32.25;;;;;;;2.98;100.00;103069.97;4984323;28;20396;-78
2021/03/01 05:01:17;;;;;;;68.07;29.58;;;;;;;2.98;100.00;103069.09;4992085;28;20076;-80
2021/03/01 05:03:44;;;;;;;74.53;33.28;;;;;;;2.95;100.00;103075.38;4971159;28;20121;-80
2021/03/01 05:06:10;;;;;;;66.35;29.85;;;;;;;2.94;100.00;103069.22;4988485;28;20169;-80
2021/03/01 05:08:37;;;;;;;68.00;30.92;;;;;;;2.95;100.00;103072.72;4985648;28;20121;-80
2021/03/01 05:11:07;;;;;;;62.95;29.88;;;;;;;2.91;100.00;103069.34;4984821;28;20053;-80
2021/03/01 05:13:34;;;;;;;67.90;29.42;;;;;;;2.90;100.00;103072.88;4983922;28;20054;-80
2021/03/01 05:15:59;;;;;;;58.85;28.95;;;;;;;2.92;100.00;103068.41;4987239;28;20046;-80
2021/03/01 05:18:25;;;;;;;58.40;25.67;;;;;;;2.88;100.00;103071.25;4970035;28;20044;-80
2021/03/01 05:20:50;;;;;;;56.47;26.35;;;;;;;2.87;100.00;103066.84;4987799;28;20117;-80
2021/03/01 05:23:16;;;;;;;67.10;31.33;;;;;;;2.87;100.00;103070.34;4981050;28;20090;-80
2021/03/01 05:25:41;;;;;;;73.15;32.63;;;;;;;2.85;100.00;103074.88;4985144;28;20042;-80
2021/03/01 05:28:07;;;;;;;69.18;34.78;;;;;;;2.82;100.00;103082.97;4971206;28;20118;-80
2021/03/01 05:30:32;;;;;;;72.43;35.25;;;;;;;2.80;100.00;103076.84;4946263;28;20097;-80
2021/03/01 05:32:58;;;;;;;70.25;33.75;;;;;;;2.78;100.00;103083.13;4983413;28;20046;-80
2021/03/01 05:35:24;;;;;;;77.40;35.38;;;;;;;2.72;100.00;103078.91;4980492;28;20074;-80
2021/03/01 05:37:49;;;;;;;71.72;32.25;;;;;;;2.74;100.00;103078.88;4984311;28;20105;-80
2021/03/01 05:40:15;;;;;;;76.75;33.50;;;;;;;2.71;100.00;103071.88;4986327;28;20054;-80
2021/03/01 05:42:42;;;;;;;70.53;31.38;;;;;;;2.70;100.00;103075.44;4971276;28;20054;-80
2021/03/01 05:45:09;;;;;;;69.25;31.30;;;;;;;2.66;100.00;103073.84;4984521;28;20046;-80
2021/03/01 05:47:36;;;;;;;71.53;32.75;;;;;;;2.66;100.00;103079.13;4971993;28;20509;-80
2021/03/01 05:50:03;;;;;;;79.70;33.72;;;;;;;2.58;100.00;103086.50;4968244;28;20065;-80
2021/03/01 05:52:31;;;;;;;72.80;32.78;;;;;;;2.65;100.00;103077.44;4978075;28;20483;-80
2021/03/01 05:54:59;;;;;;;72.45;32.60;;;;;;;2.65;100.00;103083.59;4964478;28;20054;-80
2021/03/01 05:57:24;;;;;;;74.32;33.30;;;;;;;2.63;100.00;103076.59;4945537;28;20054;-80
2021/03/01 05:59:50;;;;;;;69.85;31.25;;;;;;;2.61;100.00;103086.41;4990563;28;20573;-80
2021/03/01 06:02:16;;;;;;;66.97;31.52;;;;;;;2.60;100.00;103084.69;4977415;28;20063;-80
2021/03/01 06:04:42;;;;;;;69.00;30.92;;;;;;;2.59;100.00;103088.22;4985038;28;20038;-80
2021/03/01 06:07:07;;;;;;;71.78;32.28;;;;;;;2.60;100.00;103082.03;4985935;28;20101;-80
2021/03/01 06:09:33;;;;;;;67.55;27.55;;;;;;;2.50;100.00;103089.44;4979197;28;20499;-79
2021/03/01 06:11:58;;;;;;;63.72;28.85;;;;;;;2.54;100.00;103084.91;4974286;28;20407;-80
2021/03/01 06:14:23;;;;;;;61.08;25.33;;;;;;;2.44;100.00;103090.50;4986198;28;20049;-80
2021/03/01 06:17:15;;;;;;;61.53;25.55;;;;;;;2.44;100.00;103087.88;4979782;28;20555;-80
2021/03/01 06:19:58;;;;;;;61.00;25.35;;;;;;;2.39;100.00;103096.94;4952259;28;20043;-80
2021/03/01 06:22:37;;;;;;;61.00;27.02;;;;;;;2.43;100.00;103094.09;4970641;28;20503;-80
2021/03/01 06:25:09;;;;;;;69.32;28.63;;;;;;;2.46;100.00;103107.25;4985344;28;20053;-80
2021/03/01 06:27:58;;;;;;;64.72;28.25;;;;;;;2.46;100.00;103104.59;4985761;28;20050;-80
2021/03/01 06:30:26;;;;;;;63.90;27.60;;;;;;;2.46;100.00;103107.25;4990823;28;20073;-80
2021/03/01 06:33:05;;;;;;;61.77;27.13;;;;;;;2.49;100.00;103099.16;4965387;28;20053;-79
2021/03/01 06:35:36;;;;;;;66.05;28.95;;;;;;;2.52;100.00;103102.63;4970117;28;20121;-80
2021/03/01 06:38:20;;;;;;;60.47;27.85;;;;;;;2.51;100.00;103101.78;4980291;28;20105;-80
2021/03/01 06:41:20;;;;;;;60.30;27.65;;;;;;;2.55;100.00;103103.38;4985281;28;20061;-80
2021/03/01 06:43:59;;;;;;;54.90;25.88;;;;;;;2.52;100.00;103103.50;4968688;28;20049;-80
2021/03/01 06:46:30;;;;;;;57.08;23.58;;;;;;;2.49;100.00;103103.63;4983750;28;20042;-80
2021/03/01 06:49:10;;;;;;;57.70;27.13;;;;;;;2.55;100.00;103107.81;4972296;28;20048;-80
2021/03/01 06:51:36;;;;;;;63.53;28.13;;;;;;;2.55;100.00;103102.53;4946942;28;20506;-80
2021/03/01 06:54:01;;;;;;;62.35;27.10;;;;;;;2.57;100.00;103103.34;4982257;28;20121;-80
2021/03/01 06:56:43;;;;;;;59.70;25.40;;;;;;;2.54;100.00;103112.28;4976297;28;20267;-80
2021/03/01 06:59:13;;;;;;;58.92;27.33;;;;;;;2.55;100.00;103111.34;4984423;28;20043;-80
2021/03/01 07:01:50;;;;;;;67.78;29.25;;;;;;;2.59;100.00;103115.63;4958280;28;20046;-80
2021/03/01 07:04:25;;;;;;;58.05;26.73;;;;;;;2.61;100.00;103112.91;4978504;28;20111;-80
2021/03/01 07:06:54;;;;;;;61.67;27.83;;;;;;;2.62;100.00;103104.06;4978532;28;20065;-80
2021/03/01 07:09:22;;;;;;;58.58;26.70;;;;;;;2.64;100.00;103107.50;4981260;28;20557;-79
2021/03/01 07:11:47;;;;;;;62.45;27.42;;;;;;;2.68;100.00;103102.03;4979972;28;20506;-80
2021/03/01 07:14:15;;;;;;;58.03;25.40;;;;;;;2.71;100.00;103103.69;4980701;28;20146;-80
2021/03/01 07:16:49;;;;;;;57.50;25.10;;;;;;;2.69;100.00;103109.06;4984402;28;20399;-80
2021/03/01 07:19:28;;;;;;;51.47;22.77;;;;;;;2.65;100.00;103114.53;4979960;28;20076;-80
2021/03/01 07:21:54;;;;;;;46.58;22.63;;;;;;;2.65;100.00;103118.06;4979097;28;20478;-79
2021/03/01 07:24:22;;;;;;;47.80;22.45;;;;;;;2.63;100.00;103108.41;4978983;28;20120;-79
2021/03/01 07:26:51;;;;;;;47.13;23.33;;;;;;;2.68;100.00;103103.81;4982246;28;20039;-80
2021/03/01 07:29:18;;;;;;;54.00;25.67;;;;;;;2.70;100.00;103108.16;4978697;28;20061;-80
2021/03/01 07:32:00;;;;;;;51.17;23.58;;;;;;;2.70;100.00;103104.59;4964826;28;20045;-80
2021/03/01 07:34:26;;;;;;;51.78;24.50;;;;;;;2.75;100.00;103109.75;4959871;28;20046;-80
2021/03/01 07:36:52;;;;;;;47.45;23.17;;;;;;;2.79;100.00;103100.75;4983967;28;20046;-79
2021/03/01 07:39:18;;;;;;;47.42;22.92;;;;;;;2.81;100.00;103102.41;4981704;28;22219;-80
2021/03/01 07:41:44;;;;;;;51.45;24.50;;;;;;;2.85;100.00;103101.41;4979748;28;20039;-80
2021/03/01 07:44:10;;;;;;;50.03;22.73;;;;;;;2.86;100.00;103105.78;4937388;28;20046;-80
2021/03/01 07:46:47;;;;;;;50.13;22.98;;;;;;;2.85;100.00;103098.75;4969337;28;20050;-80
2021/03/01 07:49:13;;;;;;;44.97;21.95;;;;;;;2.82;100.00;103106.81;4972645;28;20460;-80
2021/03/01 07:51:47;;;;;;;48.05;21.75;;;;;;;2.86;100.00;103108.44;4938758;28;20077;-80
2021/03/01 07:54:19;;;;;;;47.70;23.50;;;;;;;2.92;100.00;103109.97;4979386;28;20124;-79
2021/03/01 07:56:46;;;;;;;51.35;22.25;;;;;;;2.88;100.00;103111.91;4985998;28;20050;-79
2021/03/01 07:59:13;;;;;;;47.88;22.25;;;;;;;2.92;100.00;103108.19;4987897;28;20372;-80
2021/03/01 08:01:39;;;;;;;45.70;22.08;;;;;;;2.97;100.00;103115.13;4963873;28;20063;-80
2021/03/01 08:04:05;;;;;;;45.63;20.73;;;;;;;2.94;100.00;103122.25;4979918;28;20046;-80
2021/03/01 08:06:58;;;;;;;45.17;20.27;;;;;;;3.00;100.00;103115.00;4984934;28;20050;-80
2021/03/01 08:09:44;;;;;;;46.08;21.48;;;;;;;3.01;100.00;103108.78;4985370;28;20043;-80
2021/03/01 08:12:11;;;;;;;44.45;21.60;;;;;;;3.02;100.00;103111.38;4970865;28;20042;-79
2021/03/01 08:14:49;;;;;;;42.05;20.85;;;;;;;3.09;100.00;103109.34;4987162;28;20097;-79
2021/03/01 08:17:28;;;;;;;45.55;20.63;;;;;;;3.12;100.00;103110.09;4988647;28;20509;-80
2021/03/01 08:19:54;;;;;;;;;;;;;;;3.15;100.00;103103.78;4983765;28;20046;-80
2021/03/01 08:22:19;;;;;;;44.63;19.40;;;;;;;3.09;100.00;103112.00;4986900;28;19936;-80
2021/03/01 08:24:53;;;;;;;32.58;17.83;;;;;;;3.05;100.00;103111.25;4988782;28;20509;-80
2021/03/01 08:27:24;;;;;;;38.53;18.45;;;;;;;3.11;100.00;103116.31;4988057;28;20030;-80
2021/03/01 08:30:21;;;;;;;41.28;20.92;;;;;;;3.16;100.00;103113.47;4988097;28;20054;-81
2021/03/01 08:33:09;;;;;;;40.42;19.48;;;;;;;3.21;100.00;103118.63;4955781;28;20395;-80
2021/03/01 08:35:40;;;;;;;38.30;19.38;;;;;;;3.27;100.00;103121.88;4937831;28;20077;-80
2021/03/01 08:38:07;;;;;;;38.05;17.90;;;;;;;3.30;100.00;103118.25;4984241;28;20511;-80
2021/03/01 08:40:33;;;;;;;32.38;16.88;;;;;;;3.32;100.00;103119.91;4977339;28;20055;-80
2021/03/01 08:43:06;;;;;;;35.10;16.42;;;;;;;3.30;100.00;103119.09;4982869;28;20141;-80
2021/03/01 08:45:42;;;;;;;36.38;17.52;;;;;;;3.29;100.00;103117.38;4978142;28;20557;-81
2021/03/01 08:48:19;;;;;;;35.60;17.25;;;;;;;3.32;100.00;103111.97;4971168;28;20049;-79
2021/03/01 08:50:47;;;;;;;35.08;17.02;;;;;;;3.32;100.00;103117.25;4984800;28;20104;-80
2021/03/01 08:53:24;;;;;;;34.45;17.38;;;;;;;3.34;100.00;103125.19;4982938;28;20076;-79
2021/03/01 08:55:51;;;;;;;32.80;16.98;;;;;;;3.35;100.00;103121.59;4974555;28;20054;-80
2021/03/01 08:58:18;;;;;;;35.90;19.38;;;;;;;3.36;100.00;103123.31;4985258;28;20560;-80
2021/03/01 09:00:57;;;;;;;35.30;15.65;;;;;;;3.33;100.00;103113.69;4987079;28;20121;-79
2021/03/01 09:03:27;;;;;;;37.53;16.10;;;;;;;3.37;100.00;103115.31;4985858;28;20035;-79
2021/03/01 09:06:14;;;;;;;38.60;19.20;;;;;;;3.43;100.00;103113.34;4972887;28;20046;-80
2021/03/01 09:08:41;;;;;;;34.72;18.27;;;;;;;3.50;100.00;103109.50;4936120;28;20054;-80
2021/03/01 09:11:24;;;;;;;33.83;17.20;;;;;;;3.57;100.00;103095.91;4981374;28;20088;-80
2021/03/01 09:13:51;;;;;;;36.03;17.25;;;;;;;3.57;100.00;103100.38;4979458;28;20042;-80
2021/03/01 09:16:18;;;;;;;37.80;16.73;;;;;;;3.62;100.00;103098.38;4963682;28;20038;-79
2021/03/01 09:18:46;;;;;;;31.77;16.05;;;;;;;3.64;100.00;103111.59;4984478;28;20129;-80
2021/03/01 09:21:19;;;;;;;29.48;15.82;;;;;;;3.65;100.00;103100.91;4985568;28;20516;-80
2021/03/01 09:23:47;;;;;;;35.53;17.48;;;;;;;3.65;100.00;103106.19;4984703;28;20054;-79
2021/03/01 09:26:24;;;;;;;30.30;16.08;;;;;;;3.65;100.00;103097.38;4986136;28;20118;-79
2021/03/01 09:28:52;;;;;;;30.90;15.57;;;;;;;3.69;100.00;103102.50;4975890;28;20054;-80
2021/03/01 09:31:18;;;;;;;33.78;16.40;;;;;;;3.68;100.00;103098.09;4986488;28;20050;-80
2021/03/01 09:33:45;;;;;;;33.15;16.13;;;;;;;3.72;100.00;103102.38;4979335;28;20038;-80
2021/03/01 09:36:11;;;;;;;34.33;17.73;;;;;;;3.78;100.00;103103.94;4992594;28;20042;-79
2021/03/01 09:38:37;;;;;;;32.58;15.95;;;;;;;3.83;100.00;103102.81;4972279;28;20050;-80
2021/03/01 09:41:06;;;;;;;29.30;15.85;;;;;;;3.88;100.00;103105.25;4969411;28;20039;-80
2021/03/01 09:43:32;;;;;;;30.57;16.33;;;;;;;3.94;100.00;103104.13;4989784;28;20128;-80
2021/03/01 09:45:59;;;;;;;32.90;17.90;;;;;;;3.95;100.00;103105.88;4987281;28;20587;-79
2021/03/01 09:48:27;;;;;;;35.88;17.52;;;;;;;3.96;100.00;103107.59;4988374;28;20060;-80
2021/03/01 09:50:54;;;;;;;28.88;16.52;;;;;;;3.99;100.00;103104.81;4988573;28;20498;-80
2021/03/01 09:53:19;;;;;;;30.73;16.55;;;;;;;4.03;100.00;103099.31;4972026;28;20081;-80
2021/03/01 09:55:45;;;;;;;29.20;14.43;;;;;;;4.09;100.00;103099.97;4988102;28;20038;-80
2021/03/01 09:58:30;;;;;;;31.20;15.93;;;;;;;4.15;100.00;103097.91;4996430;28;20038;-80
2021/03/01 10:01:16;;;;;;;29.73;14.70;;;;;;;4.21;100.00;103096.78;4988041;28;20050;-80
2021/03/01 10:03:47;;;;;;;28.45;14.45;;;;;;;4.24;100.00;103094.00;4968074;28;20108;-80
2021/03/01 10:06:28;;;;;;;34.28;14.23;;;;;;;4.25;100.00;103091.25;4981060;28;20046;-80
2021/03/01 10:09:02;;;;;;;31.20;14.70;;;;;;;4.33;100.00;103088.28;4984992;28;20057;-79
2021/03/01 10:11:27;;;;;;;28.35;16.20;;;;;;;4.42;100.00;103087.00;4984347;28;20042;-80
2021/03/01 10:14:03;;;;;;;27.83;14.38;;;;;;;4.48;100.00;103086.72;4992880;28;20282;-80
2021/03/01 10:16:40;;;;;;;29.83;14.18;;;;;;;4.48;99.49;103086.72;4983244;28;20116;-80
2021/03/01 10:19:17;;;;;;;33.92;16.10;;;;;;;4.58;99.99;103080.06;4983758;28;20039;-79
2021/03/01 10:21:44;;;;;;;27.13;14.30;;;;;;;4.63;99.55;103085.16;4969365;28;20046;-80
2021/03/01 10:24:12;;;;;;;30.33;14.23;;;;;;;4.65;98.95;103089.47;4981696;28;20042;-80
2021/03/01 10:26:55;;;;;;;27.40;15.48;;;;;;;4.69;99.30;103080.44;4968452;28;20435;-80
2021/03/01 10:29:43;;;;;;;28.52;14.75;;;;;;;4.78;98.95;103088.94;4986881;28;20077;-80
2021/03/01 10:32:23;;;;;;;32.85;20.42;;;;;;;4.82;98.94;103077.22;4962794;28;20057;-80
2021/03/01 10:34:49;;;;;;;30.42;15.50;;;;;;;4.93;99.47;103069.59;4984406;28;20547;-80
2021/03/01 10:37:17;;;;;;;30.67;14.68;;;;;;;5.02;98.66;103074.47;4985217;28;20050;-80
2021/03/01 10:39:46;;;;;;;28.10;14.93;;;;;;;5.11;98.33;103074.03;4969844;28;20082;-80
2021/03/01 10:42:14;;;;;;;29.35;14.63;;;;;;;5.27;98.51;103068.00;4965969;28;20042;-80
2021/03/01 10:44:41;;;;;;;26.95;14.50;;;;;;;5.38;98.22;103073.63;4986940;28;20142;-78
2021/03/01 10:47:18;;;;;;;23.63;14.73;;;;;;;5.33;96.56;103084.53;4965357;28;20487;-78
2021/03/01 10:49:47;;;;;;;29.73;14.73;;;;;;;5.38;96.61;103081.63;4991455;28;20065;-79
2021/03/01 10:52:15;;;;;;;24.77;14.23;;;;;;;5.42;96.30;103091.22;4988911;28;20042;-79
2021/03/01 10:54:41;;;;;;;25.88;13.68;;;;;;;5.33;95.60;103086.34;4986328;28;20061;-78
2021/03/01 10:57:06;;;;;;;26.30;14.48;;;;;;;5.31;95.89;103082.88;4982860;28;20050;-79
2021/03/01 10:59:33;;;;;;;28.13;14.23;;;;;;;5.23;95.63;103085.91;4980637;28;20046;-79
2021/03/01 11:01:59;;;;;;;22.90;12.75;;;;;;;5.30;96.56;103089.16;4984922;28;20074;-77
2021/03/01 11:04:24;;;;;;;24.80;13.68;;;;;;;5.34;96.56;103086.25;4955196;28;20085;-79
2021/03/01 11:06:51;;;;;;;24.13;12.75;;;;;;;5.30;95.60;103097.13;4986883;28;20510;-78
2021/03/01 11:09:17;;;;;;;21.15;12.40;;;;;;;5.27;95.56;103089.28;4968677;28;20121;-79
2021/03/01 11:11:44;;;;;;;22.77;13.23;;;;;;;5.30;96.34;103082.00;4971215;28;20057;-79
2021/03/01 11:14:11;;;;;;;22.52;14.25;;;;;;;5.34;96.41;103080.91;4986898;28;20054;-79
2021/03/01 11:16:37;;;;;;;25.85;14.60;;;;;;;5.47;96.63;103077.66;4957168;28;20218;-78
2021/03/01 11:19:04;;;;;;;27.90;14.55;;;;;;;5.53;95.92;103078.22;4993582;28;20058;-79